| time (UTC) | temp F | wind direction | speed knots | gust knots | rain 1hr in | rain 24hr in | rain mn in | humidity % | barometer mb |
| 20260506230915 | 48 | 338 | 1.7 | 4.3 | 0.00 | 0.51 | 0.00 | 85 | 1011.2 |
| 20260506225936 | 49 | 315 | 2.6 | 4.3 | 0.00 | 0.52 | 0.00 | 85 | 1011.0 |
| 20260506224915 | 50 | 338 | 0.9 | 1.7 | 0.00 | 0.52 | 0.00 | 85 | 1010.8 |
| 20260506223916 | 50 | 338 | 1.7 | 2.6 | 0.00 | 0.52 | 0.00 | 85 | 1010.7 |
| 20260506222936 | 51 | 270 | 0.9 | 0.9 | 0.00 | 0.52 | 0.00 | 85 | 1010.6 |
| 20260506221916 | 51 | 338 | 1.7 | 2.6 | 0.00 | 0.52 | 0.00 | 84 | 1010.5 |
| 20260506220915 | 51 | 0 | 0.9 | 0.9 | 0.00 | 0.52 | 0.00 | 85 | 1010.4 |
| 20260506215916 | 52 | 135 | 2.6 | 5.2 | 0.00 | 0.52 | 0.52 | 85 | 1010.2 |
| 20260506214916 | 52 | 293 | 0.9 | 1.7 | 0.00 | 0.52 | 0.52 | 85 | 1010.3 |
| 20260506213916 | 52 | 0.0 | 0.9 | 0.00 | 0.52 | 0.52 | 85 | 1010.3 | |
| 20260506212916 | 52 | 270 | 0.9 | 1.7 | 0.00 | 0.52 | 0.52 | 85 | 1010.4 |
| 20260506211916 | 52 | 90 | 0.9 | 1.7 | 0.00 | 0.52 | 0.52 | 86 | 1010.3 |
| 20260506210916 | 52 | 270 | 3.5 | 5.2 | 0.00 | 0.52 | 0.52 | 86 | 1010.4 |
| 20260506210008 | 52 | 0.0 | 0.0 | 0.00 | 0.52 | 0.52 | 86 | 1010.2 | |
| 20260506205832 | 52 | 0.0 | 0.0 | 0.00 | 0.52 | 0.52 | 86 | 1010.2 | |
| 20260506205716 | 52 | 315 | 0.9 | 0.9 | 0.00 | 0.52 | 0.52 | 86 | 1010.2 |
| 20260506204716 | 52 | 293 | 0.9 | 0.9 | 0.00 | 0.52 | 0.52 | 86 | 1010.1 |
| 20260506203716 | 52 | 293 | 0.9 | 1.7 | 0.00 | 0.52 | 0.52 | 86 | 1010.1 |
| 20260506202812 | 52 | 0.0 | 0.0 | 0.00 | 0.52 | 0.52 | 86 | 1010.1 | |
| 20260506202650 | 52 | 0 | 1.7 | 1.7 | 0.00 | 0.52 | 0.52 | 86 | 1010.1 |
| 20260506202509 | 52 | 0.0 | 0.0 | 0.00 | 0.52 | 0.52 | 86 | 1010.1 | |
| 20260506202335 | 52 | 0.0 | 0.0 | 0.00 | 0.52 | 0.52 | 86 | 1010.1 | |
| 20260506202016 | 52 | 315 | 0.9 | 1.7 | 0.00 | 0.52 | 0.52 | 87 | 1010.0 |
| 20260506201112 | 52 | 270 | 3.5 | 5.2 | 0.00 | 0.52 | 0.52 | 87 | 1010.1 |
| 20260506200909 | 52 | 0.0 | 0.0 | 0.00 | 0.52 | 0.52 | 87 | 1010.0 | |
| 20260506200733 | 52 | 0.0 | 0.0 | 0.00 | 0.52 | 0.52 | 87 | 1010.0 | |
| 20260506200636 | 52 | 0.0 | 0.0 | 0.00 | 0.52 | 0.52 | 87 | 1010.0 | |
| 20260506200433 | 52 | 293 | 2.6 | 2.6 | 0.00 | 0.52 | 0.52 | 87 | 1009.9 |
| 20260506195716 | 53 | 270 | 1.7 | 1.7 | 0.00 | 0.52 | 0.52 | 87 | 1009.9 |
| 20260506194716 | 53 | 270 | 0.9 | 0.9 | 0.00 | 0.52 | 0.52 | 87 | 1009.9 |
| 20260506193716 | 53 | 225 | 0.9 | 1.7 | 0.00 | 0.52 | 0.52 | 87 | 1009.8 |
| 20260506192736 | 53 | 0.0 | 0.9 | 0.00 | 0.52 | 0.52 | 87 | 1009.6 | |
| 20260506191716 | 53 | 293 | 0.9 | 1.7 | 0.00 | 0.52 | 0.52 | 87 | 1009.7 |
| 20260506190736 | 53 | 0.0 | 0.0 | 0.00 | 0.52 | 0.52 | 87 | 1009.7 | |
| 20260506185822 | 53 | 338 | 2.6 | 3.5 | 0.00 | 0.52 | 0.52 | 87 | 1009.6 |
| 20260506184916 | 53 | 293 | 2.6 | 3.5 | 0.00 | 0.52 | 0.52 | 87 | 1009.4 |
| 20260506183915 | 53 | 0.0 | 0.9 | 0.00 | 0.52 | 0.52 | 87 | 1009.5 | |
| 20260506182916 | 53 | 338 | 0.9 | 2.6 | 0.00 | 0.52 | 0.52 | 87 | 1009.5 |
| 20260506181916 | 53 | 0.0 | 0.9 | 0.01 | 0.52 | 0.52 | 87 | 1009.3 | |
| 20260506180915 | 53 | 225 | 0.9 | 0.9 | 0.01 | 0.52 | 0.52 | 87 | 1009.2 |
| 20260506175916 | 54 | 0.0 | 0.9 | 0.01 | 0.52 | 0.52 | 87 | 1009.0 | |
| 20260506174916 | 54 | 293 | 0.9 | 1.7 | 0.01 | 0.52 | 0.52 | 87 | 1009.0 |
| 20260506173936 | 54 | 0.0 | 0.9 | 0.01 | 0.52 | 0.52 | 87 | 1008.8 | |
| 20260506172915 | 54 | 293 | 1.7 | 3.5 | 0.01 | 0.52 | 0.52 | 87 | 1008.8 |
| 20260506171936 | 55 | 338 | 1.7 | 2.6 | 0.00 | 0.51 | 0.51 | 87 | 1008.8 |
| 20260506170916 | 55 | 270 | 1.7 | 3.5 | 0.00 | 0.51 | 0.51 | 86 | 1008.9 |
| 20260506165915 | 56 | 0.0 | 0.9 | 0.00 | 0.51 | 0.51 | 87 | 1008.8 | |
| 20260506164915 | 56 | 293 | 0.9 | 0.9 | 0.00 | 0.51 | 0.51 | 87 | 1008.7 |
| 20260506163916 | 56 | 315 | 2.6 | 4.3 | 0.00 | 0.51 | 0.51 | 86 | 1008.6 |
| 20260506162917 | 56 | 248 | 0.9 | 2.6 | 0.00 | 0.51 | 0.51 | 87 | 1008.5 |
| 20260506161917 | 56 | 0.0 | 0.9 | 0.00 | 0.51 | 0.51 | 87 | 1008.8 | |
| 20260506160917 | 55 | 0.0 | 0.9 | 0.00 | 0.51 | 0.51 | 87 | 1008.9 | |
| 20260506155918 | 55 | 338 | 1.7 | 3.5 | 0.00 | 0.51 | 0.51 | 87 | 1009.0 |
| 20260506154917 | 56 | 315 | 0.9 | 0.9 | 0.00 | 0.51 | 0.51 | 88 | 1009.0 |
| 20260506153917 | 55 | 0.0 | 0.9 | 0.00 | 0.51 | 0.51 | 88 | 1009.0 | |
| 20260506152938 | 56 | 315 | 0.9 | 0.9 | 0.00 | 0.51 | 0.51 | 88 | 1009.1 |
| 20260506151916 | 56 | 315 | 1.7 | 4.3 | 0.00 | 0.51 | 0.51 | 88 | 1009.0 |
| 20260506150917 | 56 | 0.0 | 0.9 | 0.00 | 0.51 | 0.51 | 89 | 1008.8 | |
| 20260506145917 | 56 | 0.0 | 0.9 | 0.00 | 0.51 | 0.51 | 90 | 1008.8 | |
| 20260506144917 | 56 | 248 | 0.9 | 1.7 | 0.00 | 0.51 | 0.51 | 90 | 1008.6 |
| 20260506143917 | 55 | 315 | 0.9 | 1.7 | 0.00 | 0.51 | 0.51 | 90 | 1008.6 |
| 20260506142917 | 55 | 0.0 | 1.7 | 0.00 | 0.51 | 0.51 | 90 | 1008.8 | |
| 20260506141917 | 55 | 338 | 0.9 | 1.7 | 0.00 | 0.51 | 0.51 | 90 | 1008.8 |
| 20260506140917 | 55 | 315 | 0.9 | 1.7 | 0.00 | 0.51 | 0.51 | 90 | 1008.8 |
| 20260506135917 | 56 | 270 | 1.7 | 3.5 | 0.00 | 0.51 | 0.51 | 91 | 1008.7 |
| 20260506134917 | 55 | 293 | 0.9 | 1.7 | 0.00 | 0.51 | 0.51 | 92 | 1008.6 |
| 20260506133918 | 56 | 315 | 0.9 | 1.7 | 0.00 | 0.51 | 0.51 | 92 | 1008.6 |
| 20260506132917 | 55 | 0.0 | 0.9 | 0.00 | 0.51 | 0.51 | 93 | 1008.5 | |
| 20260506131917 | 55 | 338 | 0.9 | 1.7 | 0.00 | 0.51 | 0.51 | 92 | 1008.5 |
| 20260506130917 | 55 | 0.0 | 0.9 | 0.00 | 0.51 | 0.51 | 93 | 1008.4 | |
| 20260506125937 | 55 | 315 | 1.7 | 4.3 | 0.00 | 0.51 | 0.51 | 93 | 1008.5 |
| 20260506124917 | 54 | 293 | 0.9 | 1.7 | 0.00 | 0.51 | 0.51 | 93 | 1008.5 |
| 20260506123937 | 54 | 315 | 0.9 | 1.7 | 0.00 | 0.51 | 0.51 | 94 | 1008.5 |
| 20260506122917 | 54 | 0.0 | 0.9 | 0.00 | 0.51 | 0.51 | 93 | 1008.6 | |
| 20260506121917 | 54 | 315 | 0.9 | 0.9 | 0.00 | 0.51 | 0.51 | 93 | 1008.5 |
| 20260506120937 | 54 | 293 | 1.7 | 3.5 | 0.00 | 0.51 | 0.51 | 94 | 1008.5 |
| 20260506115917 | 55 | 0.0 | 0.9 | 0.00 | 0.51 | 0.51 | 94 | 1008.5 | |
| 20260506114937 | 55 | 0.0 | 0.9 | 0.00 | 0.51 | 0.51 | 94 | 1008.4 | |
| 20260506113917 | 55 | 315 | 0.9 | 0.9 | 0.00 | 0.51 | 0.51 | 94 | 1008.2 |
| 20260506112917 | 54 | 270 | 0.9 | 1.7 | 0.00 | 0.51 | 0.51 | 94 | 1008.0 |
| 20260506111917 | 54 | 315 | 1.7 | 4.3 | 0.00 | 0.51 | 0.51 | 94 | 1008.0 |
| 20260506110917 | 54 | 315 | 0.9 | 2.6 | 0.00 | 0.51 | 0.51 | 94 | 1007.9 |
| 20260506105917 | 54 | 338 | 0.9 | 2.6 | 0.00 | 0.51 | 0.51 | 94 | 1007.9 |
| 20260506104917 | 54 | 315 | 0.9 | 0.9 | 0.00 | 0.51 | 0.51 | 94 | 1007.8 |
| 20260506103917 | 54 | 338 | 0.9 | 2.6 | 0.01 | 0.51 | 0.51 | 94 | 1007.7 |
| 20260506102917 | 54 | 293 | 3.5 | 5.2 | 0.02 | 0.51 | 0.51 | 94 | 1007.6 |
| 20260506101917 | 54 | 0.0 | 0.0 | 0.02 | 0.51 | 0.51 | 94 | 1007.5 | |
| 20260506100917 | 54 | 270 | 1.7 | 3.5 | 0.02 | 0.51 | 0.51 | 94 | 1007.3 |
| 20260506095937 | 53 | 338 | 0.9 | 1.7 | 0.03 | 0.51 | 0.51 | 94 | 1007.3 |
| 20260506094917 | 53 | 23 | 0.9 | 2.6 | 0.04 | 0.51 | 0.51 | 94 | 1007.3 |
| 20260506093917 | 53 | 315 | 2.6 | 4.3 | 0.04 | 0.50 | 0.50 | 94 | 1007.1 |
| 20260506092917 | 53 | 338 | 0.9 | 1.7 | 0.03 | 0.50 | 0.50 | 94 | 1007.1 |
| 20260506091917 | 53 | 293 | 1.7 | 4.3 | 0.03 | 0.50 | 0.50 | 94 | 1007.0 |
| 20260506090917 | 53 | 293 | 0.9 | 0.9 | 0.04 | 0.49 | 0.49 | 94 | 1007.0 |
| 20260506085917 | 53 | 270 | 3.5 | 6.1 | 0.05 | 0.48 | 0.48 | 94 | 1006.9 |
| 20260506084916 | 53 | 315 | 2.6 | 4.3 | 0.05 | 0.47 | 0.47 | 94 | 1006.8 |
| 20260506083917 | 53 | 270 | 2.6 | 3.5 | 0.06 | 0.46 | 0.46 | 94 | 1006.7 |
| 20260506082917 | 53 | 315 | 1.7 | 3.5 | 0.07 | 0.46 | 0.46 | 94 | 1006.7 |
| 20260506081916 | 53 | 315 | 0.9 | 1.7 | 0.09 | 0.46 | 0.46 | 94 | 1006.7 |
| 20260506080916 | 53 | 338 | 2.6 | 5.2 | 0.09 | 0.45 | 0.45 | 94 | 1006.7 |
| 20260506072916 | 53 | 293 | 0.9 | 1.7 | 0.08 | 0.39 | 0.39 | 94 | 1006.3 |
| 20260506071917 | 53 | 315 | 0.9 | 1.7 | 0.06 | 0.37 | 0.37 | 94 | 1006.3 |
| 20260506070917 | 53 | 315 | 0.9 | 1.7 | 0.05 | 0.35 | 0.35 | 94 | 1006.2 |
| 20260506061916 | 53 | 0.0 | 0.9 | 0.02 | 0.31 | 0.31 | 93 | 1006.2 | |
| 20260506060916 | 53 | 270 | 1.7 | 1.7 | 0.02 | 0.31 | 0.31 | 93 | 1006.1 |
| 20260506050916 | 54 | 315 | 2.6 | 4.3 | 0.02 | 0.29 | 0.29 | 93 | 1006.4 |
| 20260506044916 | 54 | 0.0 | 0.9 | 0.09 | 0.28 | 0.28 | 93 | 1006.4 | |
| 20260506043937 | 54 | 0.0 | 0.9 | 0.13 | 0.28 | 0.28 | 93 | 1006.5 | |
| 20260506042916 | 54 | 315 | 0.9 | 1.7 | 0.20 | 0.28 | 0.28 | 93 | 1006.5 |
| 20260506041916 | 54 | 315 | 0.9 | 2.6 | 0.22 | 0.27 | 0.27 | 93 | 1006.6 |
| 20260506040936 | 54 | 225 | 0.9 | 0.9 | 0.22 | 0.27 | 0.27 | 93 | 1006.7 |
| 20260506035916 | 54 | 0.0 | 0.9 | 0.20 | 0.24 | 0.24 | 93 | 1006.8 | |
| 20260506034916 | 54 | 293 | 0.9 | 1.7 | 0.15 | 0.20 | 0.20 | 93 | 1006.8 |
| 20260506033916 | 54 | 0 | 0.9 | 1.7 | 0.09 | 0.14 | 0.14 | 92 | 1006.9 |
| 20260506032916 | 54 | 315 | 0.9 | 1.7 | 0.03 | 0.08 | 0.08 | 92 | 1007.0 |
| 20260506031916 | 54 | 0.0 | 0.9 | 0.01 | 0.05 | 0.05 | 92 | 1007.0 | |
| 20260506030916 | 54 | 338 | 0.9 | 0.9 | 0.01 | 0.05 | 0.05 | 92 | 1007.1 |
| 20260506025916 | 54 | 315 | 1.7 | 2.6 | 0.01 | 0.05 | 0.05 | 92 | 1007.2 |
| 20260506024916 | 54 | 90 | 0.9 | 4.3 | 0.01 | 0.05 | 0.05 | 92 | 1007.2 |
| 20260506023916 | 54 | 338 | 0.9 | 1.7 | 0.01 | 0.05 | 0.05 | 92 | 1007.2 |
| 20260506022916 | 54 | 315 | 1.7 | 3.5 | 0.01 | 0.05 | 0.05 | 91 | 1007.3 |
| 20260506021916 | 54 | 315 | 0.9 | 0.9 | 0.01 | 0.04 | 0.04 | 91 | 1007.7 |
| 20260506020916 | 54 | 338 | 2.6 | 4.3 | 0.01 | 0.04 | 0.04 | 91 | 1007.7 |
| 20260506015916 | 55 | 270 | 0.9 | 1.7 | 0.02 | 0.04 | 0.04 | 91 | 1007.8 |
| 20260506014916 | 55 | 0.0 | 0.9 | 0.02 | 0.04 | 0.04 | 91 | 1007.8 | |
| 20260506013916 | 55 | 315 | 0.9 | 0.9 | 0.02 | 0.04 | 0.04 | 91 | 1007.7 |
| 20260506012916 | 55 | 270 | 0.9 | 0.9 | 0.02 | 0.04 | 0.04 | 91 | 1007.8 |
| 20260506011916 | 55 | 293 | 0.9 | 1.7 | 0.02 | 0.03 | 0.03 | 91 | 1007.9 |
| 20260506010916 | 55 | 0.0 | 0.9 | 0.02 | 0.03 | 0.03 | 90 | 1008.0 | |
| 20260506005916 | 55 | 270 | 0.9 | 1.7 | 0.02 | 0.02 | 0.02 | 90 | 1008.2 |
| 20260506004916 | 55 | 0 | 0.9 | 1.7 | 0.02 | 0.02 | 0.02 | 90 | 1008.3 |
| 20260506003916 | 55 | 315 | 0.9 | 0.9 | 0.02 | 0.02 | 0.02 | 90 | 1008.4 |
| 20260506003007 | 56 | 0.0 | 0.0 | 0.01 | 0.02 | 0.02 | 90 | 1008.4 | |
| 20260506002830 | 56 | 0.0 | 0.0 | 0.01 | 0.02 | 0.02 | 90 | 1008.3 | |
| 20260506002727 | 56 | 0.0 | 0.0 | 0.01 | 0.02 | 0.02 | 90 | 1008.3 | |
| 20260506002530 | 56 | 0.0 | 0.0 | 0.01 | 0.02 | 0.02 | 90 | 1008.4 | |
| 20260506002407 | 56 | 0.0 | 0.0 | 0.01 | 0.02 | 0.02 | 90 | 1008.4 | |
| 20260506002230 | 56 | 0.0 | 0.0 | 0.01 | 0.02 | 0.02 | 90 | 1008.4 | |
| 20260506002047 | 56 | 0.0 | 0.0 | 0.01 | 0.02 | 0.02 | 90 | 1008.5 | |
| 20260506001911 | 56 | 0.0 | 0.0 | 0.01 | 0.02 | 0.02 | 90 | 1008.5 | |
| 20260506001616 | 56 | 0.0 | 0.0 | 0.01 | 0.02 | 0.02 | 90 | 1008.6 | |
| 20260506000716 | 56 | 0 | 2.6 | 2.6 | 0.00 | 0.01 | 0.01 | 89 | 1008.7 |
| 20260506000116 | 56 | 293 | 1.7 | 2.6 | 0.01 | 0.01 | 0.01 | 89 | 1008.7 |
| 20260505235116 | 56 | 270 | 0.9 | 1.7 | 0.01 | 0.01 | 0.01 | 89 | 1008.8 |
| 20260505234116 | 56 | 270 | 0.9 | 1.7 | 0.01 | 0.01 | 0.01 | 89 | 1008.8 |
| 20260505233219 | 56 | 293 | 0.9 | 0.9 | 0.01 | 0.01 | 0.01 | 89 | 1008.9 |
| 20260505233015 | 56 | 293 | 0.9 | 0.9 | 0.01 | 0.01 | 0.01 | 89 | 1008.9 |
| 20260505232036 | 56 | 0.0 | 0.0 | 0.01 | 0.01 | 0.01 | 88 | 1008.9 |